createdAt,value
2023-02-01T00:00:37.813Z,102377.41
2023-02-01T00:03:07.642Z,102377.15
2023-02-01T00:05:35.408Z,102391.86
2023-02-01T00:08:03.462Z,102386.53
2023-02-01T00:10:31.420Z,102384.83
2023-02-01T00:12:59.418Z,102385.41
2023-02-01T00:15:27.268Z,102378.62
2023-02-01T00:17:56.627Z,102373.48
2023-02-01T00:20:24.457Z,102371.20
2023-02-01T00:22:52.347Z,102371.81
2023-02-01T00:25:20.205Z,102369.23
2023-02-01T00:27:52.068Z,102372.34
2023-02-01T00:30:20.679Z,102373.48
2023-02-01T00:32:48.752Z,102370.64
2023-02-01T00:35:16.714Z,102363.87
2023-02-01T00:37:44.643Z,102360.17
2023-02-01T00:40:12.972Z,102354.23
2023-02-01T00:42:40.697Z,102357.04
2023-02-01T00:45:09.022Z,102363.02
2023-02-01T00:47:36.805Z,102354.23
2023-02-01T00:50:04.727Z,102357.59
2023-02-01T00:52:32.557Z,102353.08
2023-02-01T00:55:00.467Z,102345.98
2023-02-01T00:57:28.315Z,102345.98
2023-02-01T00:59:56.138Z,102350.79
2023-02-01T01:02:23.896Z,102359.88
2023-02-01T01:04:51.828Z,102349.68
2023-02-01T01:07:19.745Z,102347.98
2023-02-01T01:09:47.601Z,102345.98
2023-02-01T01:12:15.461Z,102348.83
2023-02-01T01:14:43.399Z,102340.55
2023-02-01T01:17:11.377Z,102351.58
2023-02-01T01:19:39.360Z,102341.96
2023-02-01T01:22:07.154Z,102354.12
2023-02-01T01:24:34.932Z,102358.09
2023-02-01T01:27:02.758Z,102358.67
2023-02-01T01:29:30.581Z,102363.22
2023-02-01T01:31:58.388Z,102361.78
2023-02-01T01:34:26.176Z,102358.67
2023-02-01T01:36:53.991Z,102361.52
2023-02-01T01:39:21.786Z,102348.21
2023-02-01T01:41:49.542Z,102349.06
2023-02-01T01:44:54.620Z,102349.91
2023-02-01T01:47:22.403Z,102351.05
2023-02-01T01:49:50.185Z,102345.40
2023-02-01T01:52:17.941Z,102355.27
2023-02-01T01:54:50.061Z,102340.27
2023-02-01T01:57:23.843Z,102341.12
2023-02-01T01:59:55.562Z,102327.55
2023-02-01T02:02:23.439Z,102330.65
2023-02-01T02:04:51.204Z,102331.50
2023-02-01T02:07:22.265Z,102339.71
2023-02-01T02:09:59.983Z,102338.89
2023-02-01T02:12:28.629Z,102323.59
2023-02-01T02:14:56.599Z,102304.04
2023-02-01T02:17:48.121Z,102303.22
2023-02-01T02:20:53.202Z,102298.94
2023-02-01T02:23:44.193Z,102292.98
2023-02-01T02:26:15.657Z,102291.55
2023-02-01T02:29:01.708Z,102300.02
2023-02-01T02:31:50.888Z,102304.82
2023-02-01T02:34:41.010Z,102302.59
2023-02-01T02:37:15.606Z,102313.06
2023-02-01T02:40:11.131Z,102315.61
2023-02-01T02:43:05.109Z,102317.05
2023-02-01T02:46:33.525Z,102319.86
2023-02-01T02:49:03.400Z,102316.79
2023-02-01T02:52:09.046Z,102318.42
2023-02-01T02:54:52.979Z,102310.51
2023-02-01T02:57:53.055Z,102303.68
2023-02-01T03:00:40.816Z,102293.21
2023-02-01T03:03:27.051Z,102292.92
2023-02-01T03:05:54.900Z,102297.14
2023-02-01T03:08:29.928Z,102290.63
2023-02-01T03:11:07.547Z,102291.77
2023-02-01T03:13:54.106Z,102298.51
2023-02-01T03:16:30.998Z,102294.26
2023-02-01T03:19:21.895Z,102296.52
2023-02-01T03:24:42.605Z,102304.16
2023-02-01T03:27:30.973Z,102308.94
2023-02-01T03:30:02.233Z,102315.12
2023-02-01T03:32:30.226Z,102304.95
2023-02-01T03:34:57.999Z,102300.44
2023-02-01T03:37:28.222Z,102299.27
2023-02-01T03:40:00.424Z,102288.84
2023-02-01T03:42:35.567Z,102288.84
2023-02-01T03:45:12.235Z,102278.30
2023-02-01T03:47:45.003Z,102290.40
2023-02-01T03:50:15.081Z,102294.91
2023-02-01T03:52:45.118Z,102291.52
2023-02-01T03:55:14.641Z,102289.78
2023-02-01T03:57:46.496Z,102288.05
2023-02-01T04:00:20.504Z,102294.00
2023-02-01T04:02:48.702Z,102293.34
2023-02-01T04:05:16.635Z,102293.87
2023-02-01T04:07:44.467Z,102303.48
2023-02-01T04:10:12.701Z,102302.63
2023-02-01T04:12:41.379Z,102308.29
2023-02-01T04:15:09.793Z,102308.29
2023-02-01T04:20:18.425Z,102317.38
2023-02-01T04:22:46.143Z,102314.30
2023-02-01T04:25:14.011Z,102330.42
2023-02-01T04:30:11.775Z,102333.56
2023-02-01T04:32:40.026Z,102343.73
2023-02-01T04:35:08.267Z,102351.94
2023-02-01T04:37:36.417Z,102355.04
2023-02-01T04:40:05.825Z,102341.96
2023-02-01T04:42:33.666Z,102365.47
2023-02-01T04:45:01.494Z,102372.60
2023-02-01T04:47:29.301Z,102373.41
2023-02-01T04:49:57.064Z,102371.20
2023-02-01T04:52:24.894Z,102382.51
2023-02-01T04:54:52.673Z,102375.12
2023-02-01T04:57:20.456Z,102384.47
2023-02-01T04:59:48.207Z,102388.10
2023-02-01T05:02:15.925Z,102389.27
2023-02-01T05:04:43.761Z,102398.59
2023-02-01T05:07:11.654Z,102386.76
2023-02-01T05:09:39.486Z,102386.43
2023-02-01T05:12:25.802Z,102378.23
2023-02-01T05:14:53.676Z,102351.58
2023-02-01T05:17:21.471Z,102353.73
2023-02-01T05:19:49.426Z,102339.91
2023-02-01T05:22:17.181Z,102343.27
2023-02-01T05:24:45.006Z,102343.20
2023-02-01T05:27:12.781Z,102329.12
2023-02-01T05:29:40.617Z,102320.58
2023-02-01T05:32:21.027Z,102312.96
2023-02-01T05:34:50.221Z,102324.80
2023-02-01T05:37:17.957Z,102326.56
2023-02-01T05:39:45.795Z,102332.81
2023-02-01T05:42:13.576Z,102342.72
2023-02-01T05:44:41.361Z,102349.74
2023-02-01T05:47:09.250Z,102364.72
2023-02-01T05:49:37.061Z,102363.64
2023-02-01T05:52:04.915Z,102369.00
2023-02-01T05:54:32.718Z,102362.82
2023-02-01T05:57:00.506Z,102361.45
2023-02-01T05:59:28.291Z,102356.58
2023-02-01T06:01:56.132Z,102365.63
2023-02-01T06:04:24.028Z,102354.81
2023-02-01T06:06:52.797Z,102339.84
2023-02-01T06:09:20.636Z,102345.17
2023-02-01T06:11:48.435Z,102342.09
2023-02-01T06:14:16.320Z,102337.29
2023-02-01T06:16:44.257Z,102339.84
2023-02-01T06:19:12.065Z,102338.40
2023-02-01T06:21:39.836Z,102336.70
2023-02-01T06:24:08.323Z,102346.87
2023-02-01T06:26:36.143Z,102349.16
2023-02-01T06:29:03.991Z,102367.83
2023-02-01T06:31:37.908Z,102370.34
2023-02-01T06:34:06.133Z,102390.45
2023-02-01T06:36:34.211Z,102389.30
2023-02-01T06:39:02.125Z,102394.70
2023-02-01T06:41:30.092Z,102394.12
2023-02-01T06:43:58.072Z,102392.97
2023-02-01T06:46:25.947Z,102405.43
2023-02-01T06:48:54.011Z,102403.11
2023-02-01T06:51:26.801Z,102401.47
2023-02-01T06:53:54.768Z,102404.80
2023-02-01T06:56:22.819Z,102404.80
2023-02-01T06:58:50.675Z,102411.61
2023-02-01T07:01:18.891Z,102409.29
2023-02-01T07:03:50.281Z,102416.64
2023-02-01T07:06:18.249Z,102413.60
2023-02-01T07:09:02.962Z,102405.72
2023-02-01T07:11:36.808Z,102414.19
2023-02-01T07:14:09.402Z,102416.05
2023-02-01T07:16:37.382Z,102418.73
2023-02-01T07:19:05.283Z,102432.70
2023-02-01T07:21:33.152Z,102418.93
2023-02-01T07:24:01.095Z,102424.69
2023-02-01T07:26:28.862Z,102426.55
2023-02-01T07:28:56.859Z,102424.69
2023-02-01T07:31:24.906Z,102416.22
2023-02-01T07:33:54.025Z,102411.61
2023-02-01T07:36:22.207Z,102403.30
2023-02-01T07:38:50.148Z,102402.98
2023-02-01T07:41:19.765Z,102405.10
2023-02-01T07:43:48.267Z,102393.49
2023-02-01T07:46:17.473Z,102403.01
2023-02-01T07:48:45.320Z,102412.72
2023-02-01T07:51:15.832Z,102398.85
2023-02-01T07:53:43.625Z,102399.84
2023-02-01T07:56:19.297Z,102404.38
2023-02-01T07:58:54.636Z,102405.98
2023-02-01T08:01:26.566Z,102392.61
2023-02-01T08:04:01.729Z,102411.61
2023-02-01T08:06:31.278Z,102398.04
2023-02-01T08:08:59.568Z,102399.90
2023-02-01T08:11:27.711Z,102402.06
2023-02-01T08:13:56.004Z,102399.51
2023-02-01T08:16:24.370Z,102402.98
2023-02-01T08:18:52.378Z,102412.26
2023-02-01T08:21:25.400Z,102413.11
2023-02-01T08:23:53.679Z,102420.44
2023-02-01T08:26:28.062Z,102422.23
2023-02-01T08:29:00.753Z,102423.34
2023-02-01T08:31:29.819Z,102414.22
2023-02-01T08:34:02.303Z,102419.68
2023-02-01T08:36:31.334Z,102428.15
2023-02-01T08:38:59.255Z,102416.77
2023-02-01T08:41:28.699Z,102405.55
2023-02-01T08:43:56.840Z,102410.92
2023-02-01T08:46:25.165Z,102411.21
2023-02-01T08:48:53.340Z,102414.98
2023-02-01T08:51:22.174Z,102411.09
2023-02-01T08:53:50.140Z,102393.10
2023-02-01T08:56:18.341Z,102413.18
2023-02-01T08:58:46.439Z,102409.55
2023-02-01T09:01:16.052Z,102432.66
2023-02-01T09:03:44.052Z,102424.52
2023-02-01T09:06:15.797Z,102423.12
2023-02-01T09:08:43.862Z,102424.00
2023-02-01T09:11:17.200Z,102432.47
2023-02-01T09:13:45.288Z,102445.19
2023-02-01T09:16:13.478Z,102463.63
2023-02-01T09:18:50.573Z,102452.09
2023-02-01T09:21:24.175Z,102465.69
2023-02-01T09:23:53.392Z,102456.14
2023-02-01T09:26:26.541Z,102474.88
2023-02-01T09:28:58.289Z,102470.91
2023-02-01T09:31:26.338Z,102463.63
2023-02-01T09:33:54.210Z,102452.64
2023-02-01T09:36:22.096Z,102453.75
2023-02-01T09:38:53.415Z,102470.79
2023-02-01T09:41:33.534Z,102451.59
2023-02-01T09:44:43.767Z,102475.33
2023-02-01T09:47:23.851Z,102459.21
2023-02-01T09:50:23.285Z,102458.95
2023-02-01T09:52:56.376Z,102452.18
2023-02-01T09:55:53.121Z,102444.63
2023-02-01T09:58:35.417Z,102442.96
2023-02-01T10:01:04.485Z,102447.84
2023-02-01T10:03:34.262Z,102453.82
2023-02-01T10:06:16.132Z,102463.07
2023-02-01T10:09:25.948Z,102465.88
2023-02-01T10:12:00.718Z,102447.87
2023-02-01T10:14:47.229Z,102440.31
2023-02-01T10:17:39.464Z,102451.37
2023-02-01T10:20:31.779Z,102441.82
2023-02-01T10:23:32.554Z,102442.73
2023-02-01T10:25:58.525Z,102444.80
2023-02-01T10:28:27.264Z,102441.95
2023-02-01T10:30:57.325Z,102441.46
2023-02-01T10:33:57.433Z,102427.89
2023-02-01T10:36:37.235Z,102436.69
2023-02-01T10:39:06.305Z,102413.57
2023-02-01T10:41:36.270Z,102402.98
2023-02-01T10:44:06.676Z,102407.81
2023-02-01T10:46:35.515Z,102419.16
2023-02-01T10:49:05.447Z,102409.94
2023-02-01T10:51:48.141Z,102411.18
2023-02-01T10:54:22.508Z,102423.73
2023-02-01T10:56:51.321Z,102428.67
2023-02-01T10:59:21.410Z,102425.05
2023-02-01T11:01:52.208Z,102421.52
2023-02-01T11:04:22.184Z,102423.25
2023-02-01T11:07:09.636Z,102413.30
2023-02-01T11:09:40.911Z,102409.61
2023-02-01T11:12:23.579Z,102412.39
2023-02-01T11:14:51.278Z,102421.35
2023-02-01T11:17:40.988Z,102408.37
2023-02-01T11:20:17.612Z,102405.66
2023-02-01T11:22:56.401Z,102399.12
2023-02-01T11:25:24.630Z,102391.23
2023-02-01T11:27:56.067Z,102393.52
2023-02-01T11:30:42.015Z,102385.19
2023-02-01T11:33:11.293Z,102390.75
2023-02-01T11:35:43.440Z,102382.24
2023-02-01T11:38:32.211Z,102377.54
2023-02-01T11:41:14.295Z,102378.62
2023-02-01T11:44:02.557Z,102383.36
2023-02-01T11:46:35.109Z,102383.85
2023-02-01T11:49:21.727Z,102383.42
2023-02-01T11:52:04.909Z,102387.84
2023-02-01T11:54:52.075Z,102383.23
2023-02-01T11:57:46.218Z,102393.00
2023-02-01T12:00:29.259Z,102369.73
2023-02-01T12:03:12.004Z,102373.05
2023-02-01T12:06:01.608Z,102368.80
2023-02-01T12:09:00.871Z,102382.09
2023-02-01T12:11:53.554Z,102358.51
2023-02-01T12:14:30.569Z,102361.62
2023-02-01T12:17:07.419Z,102356.71
2023-02-01T12:19:48.174Z,102348.83
2023-02-01T12:22:30.459Z,102333.43
2023-02-01T12:25:16.984Z,102340.30
2023-02-01T12:27:48.499Z,102335.88
2023-02-01T12:30:35.312Z,102310.64
2023-02-01T12:33:08.848Z,102318.91
2023-02-01T12:36:06.001Z,102302.80
2023-02-01T12:38:42.850Z,102299.36
2023-02-01T12:41:29.644Z,102295.41
2023-02-01T12:44:01.124Z,102282.30
2023-02-01T12:46:56.254Z,102290.83
2023-02-01T12:49:42.387Z,102291.52
2023-02-01T12:52:15.184Z,102287.63
2023-02-01T12:54:48.116Z,102282.30
2023-02-01T12:57:40.118Z,102290.30
2023-02-01T13:00:35.250Z,102292.92
2023-02-01T13:03:37.186Z,102287.30
2023-02-01T13:06:14.956Z,102296.09
2023-02-01T13:08:53.742Z,102291.05
2023-02-01T13:11:42.701Z,102285.37
2023-02-01T13:14:24.037Z,102278.01
2023-02-01T13:16:54.472Z,102281.45
2023-02-01T13:19:49.065Z,102282.88
2023-02-01T13:22:25.829Z,102273.83
2023-02-01T13:24:57.366Z,102268.98
2023-02-01T13:27:26.036Z,102275.55
2023-02-01T13:30:06.801Z,102275.03
2023-02-01T13:33:52.224Z,102267.68
2023-02-01T13:36:32.671Z,102272.23
2023-02-01T13:39:27.124Z,102278.77
2023-02-01T13:41:54.789Z,102268.85
2023-02-01T13:44:35.030Z,102266.56
2023-02-01T13:47:04.406Z,102267.97
2023-02-01T13:49:41.855Z,102277.06
2023-02-01T13:52:27.375Z,102292.40
2023-02-01T13:55:24.655Z,102283.34
2023-02-01T13:57:54.677Z,102290.11
2023-02-01T14:00:37.293Z,102287.27
2023-02-01T14:03:08.033Z,102281.90
2023-02-01T14:05:36.509Z,102270.82
2023-02-01T14:08:11.759Z,102286.48
2023-02-01T14:10:54.710Z,102283.34
2023-02-01T14:13:37.121Z,102288.73
2023-02-01T14:16:05.023Z,102294.39
2023-02-01T14:18:35.641Z,102292.73
2023-02-01T14:21:24.699Z,102302.08
2023-02-01T14:23:55.449Z,102290.14
2023-02-01T14:26:49.131Z,102298.97
2023-02-01T14:29:39.199Z,102317.96
2023-02-01T14:32:18.891Z,102308.88
2023-02-01T14:34:49.832Z,102312.60
2023-02-01T14:37:24.107Z,102309.46
2023-02-01T14:39:56.102Z,102312.02
2023-02-01T14:42:44.165Z,102306.65
2023-02-01T14:45:21.252Z,102318.26
2023-02-01T14:47:52.487Z,102318.55
2023-02-01T14:50:35.702Z,102327.35
2023-02-01T14:53:12.698Z,102315.45
2023-02-01T14:56:08.858Z,102315.12
2023-02-01T14:59:18.982Z,102320.25
2023-02-01T15:01:52.668Z,102315.71
2023-02-01T15:04:21.058Z,102302.40
2023-02-01T15:06:50.984Z,102305.21
2023-02-01T15:09:32.585Z,102304.92
2023-02-01T15:12:17.832Z,102318.00
2023-02-01T15:14:51.503Z,102310.31
2023-02-01T15:17:35.763Z,102315.16
2023-02-01T15:20:19.058Z,102313.16
2023-02-01T15:23:10.063Z,102321.95
2023-02-01T15:25:40.318Z,102309.20
2023-02-01T15:28:11.367Z,102318.81
2023-02-01T15:30:39.256Z,102316.56
2023-02-01T15:33:18.961Z,102323.95
2023-02-01T15:35:48.360Z,102319.63
2023-02-01T15:38:23.293Z,102321.04
2023-02-01T15:41:10.498Z,102330.12
2023-02-01T15:43:39.386Z,102322.77
2023-02-01T15:46:12.766Z,102338.63
2023-02-01T15:48:52.431Z,102338.63
2023-02-01T15:51:22.385Z,102350.83
2023-02-01T15:53:57.322Z,102337.78
2023-02-01T15:56:27.094Z,102350.53
2023-02-01T15:58:57.367Z,102361.32
2023-02-01T16:01:25.267Z,102369.23
2023-02-01T16:04:05.733Z,102354.23
2023-02-01T16:06:36.285Z,102366.13
2023-02-01T16:09:12.454Z,102366.98
2023-02-01T16:11:58.425Z,102366.68
2023-02-01T16:14:27.161Z,102368.97
2023-02-01T16:16:57.436Z,102370.09
2023-02-01T16:19:29.932Z,102384.53
2023-02-01T16:21:58.110Z,102371.20
2023-02-01T16:24:28.930Z,102374.01
2023-02-01T16:26:56.887Z,102373.16
2023-02-01T16:29:25.010Z,102387.02
2023-02-01T16:31:52.953Z,102387.90
2023-02-01T16:34:20.717Z,102390.16
2023-02-01T16:36:57.676Z,102394.44
2023-02-01T16:39:25.828Z,102395.55
2023-02-01T16:41:53.856Z,102393.00
2023-02-01T16:44:21.629Z,102396.37
2023-02-01T16:46:49.653Z,102398.92
2023-02-01T16:49:25.421Z,102403.76
2023-02-01T16:51:57.326Z,102406.31
2023-02-01T16:54:25.242Z,102406.02
2023-02-01T16:56:53.071Z,102396.11
2023-02-01T16:59:20.839Z,102405.46
2023-02-01T17:01:48.763Z,102404.31
2023-02-01T17:04:18.530Z,102406.84
2023-02-01T17:06:49.517Z,102398.07
2023-02-01T17:09:17.318Z,102397.77
2023-02-01T17:11:45.180Z,102395.52
2023-02-01T17:14:15.822Z,102388.42
2023-02-01T17:16:44.344Z,102384.14
2023-02-01T17:19:16.257Z,102378.48
2023-02-01T17:21:46.655Z,102385.58
2023-02-01T17:24:16.363Z,102392.35
2023-02-01T17:26:44.689Z,102397.19
2023-02-01T17:29:13.034Z,102387.54
2023-02-01T17:31:42.480Z,102408.24
2023-02-01T17:34:14.001Z,102410.76
2023-02-01T17:36:41.775Z,102388.69
2023-02-01T17:39:10.733Z,102400.59
2023-02-01T17:41:38.849Z,102393.76
2023-02-01T17:44:06.804Z,102400.00
2023-02-01T17:46:34.753Z,102400.00
2023-02-01T17:49:06.865Z,102398.85
2023-02-01T17:51:42.789Z,102409.65
2023-02-01T17:54:15.061Z,102392.05
2023-02-01T17:56:42.850Z,102395.78
2023-02-01T17:59:10.723Z,102393.79
2023-02-01T18:01:39.259Z,102406.80
2023-02-01T18:04:07.044Z,102390.35
2023-02-01T18:06:37.664Z,102400.30
2023-02-01T18:09:06.343Z,102406.80
2023-02-01T18:11:34.766Z,102400.59
2023-02-01T18:14:02.703Z,102409.65
2023-02-01T18:16:34.917Z,102396.93
2023-02-01T18:19:06.320Z,102400.88
2023-02-01T18:21:39.047Z,102398.85
2023-02-01T18:24:07.199Z,102396.93
2023-02-01T18:26:35.467Z,102396.05
2023-02-01T18:29:03.412Z,102388.98
2023-02-01T18:31:32.803Z,102392.64
2023-02-01T18:34:01.316Z,102397.19
2023-02-01T18:36:31.643Z,102383.29
2023-02-01T18:38:59.551Z,102375.05
2023-02-01T18:41:27.670Z,102372.80
2023-02-01T18:43:55.701Z,102373.91
2023-02-01T18:46:24.023Z,102377.60
2023-02-01T18:48:51.842Z,102381.56
2023-02-01T18:51:24.636Z,102389.73
2023-02-01T18:53:52.731Z,102399.67
2023-02-01T18:56:20.519Z,102395.16
2023-02-01T18:58:48.445Z,102402.26
2023-02-01T19:01:18.350Z,102426.62
2023-02-01T19:03:49.200Z,102415.86
2023-02-01T19:06:25.153Z,102423.80
2023-02-01T19:08:55.402Z,102431.16
2023-02-01T19:11:23.302Z,102441.91
2023-02-01T19:13:51.859Z,102452.15
2023-02-01T19:16:19.660Z,102457.25
2023-02-01T19:18:53.666Z,102457.80
2023-02-01T19:21:21.575Z,102457.55
2023-02-01T19:23:49.600Z,102463.82
2023-02-01T19:26:18.365Z,102472.88
2023-02-01T19:28:48.977Z,102467.48
2023-02-01T19:31:17.286Z,102479.38
2023-02-01T19:33:45.140Z,102472.03
2023-02-01T19:36:13.686Z,102464.09
2023-02-01T19:38:41.639Z,102464.61
2023-02-01T19:41:09.554Z,102462.94
2023-02-01T19:43:38.151Z,102462.65
2023-02-01T19:46:06.282Z,102472.59
2023-02-01T19:48:35.515Z,102460.65
2023-02-01T19:51:05.336Z,102453.59
2023-02-01T19:53:33.228Z,102452.15
2023-02-01T19:56:03.049Z,102455.55
2023-02-01T19:58:30.979Z,102447.57
2023-02-01T20:00:58.389Z,102451.86
2023-02-01T20:03:26.326Z,102450.98
2023-02-01T20:05:54.865Z,102449.27
2023-02-01T20:08:25.648Z,102453.27
2023-02-01T20:10:53.502Z,102466.57
2023-02-01T20:13:21.630Z,102469.12
2023-02-01T20:15:49.529Z,102460.00
2023-02-01T20:18:17.351Z,102469.64
2023-02-01T20:20:45.217Z,102463.40
2023-02-01T20:23:13.088Z,102469.05
2023-02-01T20:25:42.567Z,102468.20
2023-02-01T20:28:10.851Z,102465.36
2023-02-01T20:30:38.808Z,102468.76
2023-02-01T20:33:06.766Z,102485.77
2023-02-01T20:35:34.668Z,102482.33
2023-02-01T20:38:03.343Z,102480.95
2023-02-01T20:40:32.557Z,102477.55
2023-02-01T20:43:00.486Z,102498.22
2023-02-01T20:45:28.335Z,102473.27
2023-02-01T20:47:56.299Z,102474.97
2023-02-01T20:50:24.234Z,102486.05
2023-02-01T20:52:52.236Z,102468.47
2023-02-01T20:55:20.149Z,102474.97
2023-02-01T20:57:48.409Z,102464.77
2023-02-01T21:00:16.681Z,102471.05
2023-02-01T21:02:44.707Z,102478.11
2023-02-01T21:05:12.804Z,102471.60
2023-02-01T21:07:40.755Z,102469.05
2023-02-01T21:10:09.327Z,102454.90
2023-02-01T21:12:37.158Z,102462.25
2023-02-01T21:15:06.438Z,102471.34
2023-02-01T21:17:34.594Z,102468.20
2023-02-01T21:20:02.470Z,102472.78
2023-02-01T21:22:30.338Z,102467.13
2023-02-01T21:24:58.138Z,102467.98
2023-02-01T21:27:26.097Z,102474.19
2023-02-01T21:29:53.883Z,102475.27
2023-02-01T21:32:21.981Z,102477.26
2023-02-01T21:34:49.921Z,102470.76
2023-02-01T21:37:17.761Z,102469.91
2023-02-01T21:39:45.802Z,102477.00
2023-02-01T21:42:17.811Z,102470.20
2023-02-01T21:44:49.600Z,102475.56
2023-02-01T21:47:26.018Z,102473.01
2023-02-01T21:49:54.285Z,102461.66
2023-02-01T21:52:23.152Z,102456.56
2023-02-01T21:54:53.169Z,102447.73
2023-02-01T21:57:20.935Z,102449.73
2023-02-01T21:59:48.794Z,102466.99
2023-02-01T22:02:17.591Z,102448.26
2023-02-01T22:04:46.001Z,102456.20
2023-02-01T22:07:13.819Z,102459.87
2023-02-01T22:09:41.824Z,102456.73
2023-02-01T22:12:13.723Z,102447.41
2023-02-01T22:14:41.975Z,102459.28
2023-02-01T22:17:09.897Z,102458.40
2023-02-01T22:19:37.757Z,102472.55
2023-02-01T22:22:05.653Z,102475.73
2023-02-01T22:24:33.466Z,102475.73
2023-02-01T22:27:14.180Z,102481.64
2023-02-01T22:29:43.722Z,102479.65
2023-02-01T22:32:13.360Z,102483.87
2023-02-01T22:34:45.725Z,102481.64
2023-02-01T22:37:13.786Z,102488.12
2023-02-01T22:39:42.228Z,102484.95
2023-02-01T22:42:10.136Z,102486.38
2023-02-01T22:44:38.546Z,102480.17
2023-02-01T22:47:07.103Z,102469.12
2023-02-01T22:49:35.184Z,102475.37
2023-02-01T22:52:03.130Z,102476.21
2023-02-01T22:54:30.914Z,102484.72
2023-02-01T22:56:58.890Z,102475.07
2023-02-01T22:59:26.657Z,102474.52
2023-02-01T23:01:54.520Z,102483.57
2023-02-01T23:04:22.641Z,102473.96
2023-02-01T23:06:52.209Z,102473.70
2023-02-01T23:09:21.923Z,102472.84
2023-02-01T23:11:49.904Z,102472.84
2023-02-01T23:14:17.939Z,102472.00
2023-02-01T23:16:46.170Z,102473.44
2023-02-01T23:19:14.150Z,102475.98
2023-02-01T23:21:42.929Z,102484.16
2023-02-01T23:24:12.011Z,102491.26
2023-02-01T23:26:40.250Z,102486.71
2023-02-01T23:29:08.249Z,102475.07
2023-02-01T23:31:36.342Z,102486.41
2023-02-01T23:34:04.585Z,102478.77
2023-02-01T23:36:34.002Z,102464.94
2023-02-01T23:39:02.043Z,102473.08
2023-02-01T23:41:31.188Z,102472.52
2023-02-01T23:43:59.124Z,102476.21
2023-02-01T23:46:37.892Z,102477.66
2023-02-01T23:49:08.306Z,102469.15
2023-02-01T23:51:36.208Z,102469.12
2023-02-01T23:54:04.130Z,102477.00
2023-02-01T23:56:37.056Z,102471.93
2023-02-01T23:59:07.354Z,102469.97
